createdAt,value
2022-08-05T00:01:51.399Z,4.60
2022-08-05T00:04:21.255Z,8.40
2022-08-05T00:06:51.788Z,5.93
2022-08-05T00:09:20.431Z,5.57
2022-08-05T00:11:56.139Z,9.48
2022-08-05T00:14:29.136Z,6.70
2022-08-05T00:16:58.102Z,6.95
2022-08-05T00:19:33.295Z,6.28
2022-08-05T00:22:11.294Z,9.60
2022-08-05T00:24:42.493Z,6.00
2022-08-05T00:27:14.143Z,6.90
2022-08-05T00:29:44.944Z,4.18
2022-08-05T00:32:14.956Z,6.55
2022-08-05T00:35:04.581Z,4.00
2022-08-05T00:37:50.926Z,4.78
2022-08-05T00:40:27.221Z,4.95
2022-08-05T00:42:59.226Z,6.37
2022-08-05T00:45:37.999Z,5.95
2022-08-05T00:48:09.328Z,5.00
2022-08-05T00:50:41.925Z,4.60
2022-08-05T00:54:00.944Z,5.65
2022-08-05T00:56:08.880Z,5.80
2022-08-05T00:58:38.050Z,5.80
2022-08-05T01:01:09.108Z,4.70
2022-08-05T01:03:39.044Z,4.80
2022-08-05T01:06:14.110Z,6.10
2022-08-05T01:08:44.786Z,6.55
2022-08-05T01:11:33.345Z,10.63
2022-08-05T01:14:15.555Z,19.47
2022-08-05T01:16:57.229Z,20.58
2022-08-05T01:19:46.185Z,13.35
2022-08-05T01:23:15.088Z,13.50
2022-08-05T01:26:21.908Z,10.43
2022-08-05T01:29:00.566Z,8.17
2022-08-05T01:31:44.553Z,5.12
2022-08-05T01:34:21.276Z,5.28
2022-08-05T01:37:02.902Z,6.62
2022-08-05T01:39:46.609Z,7.82
2022-08-05T01:42:20.250Z,4.77
2022-08-05T01:44:54.374Z,7.25
2022-08-05T01:47:24.642Z,6.05
2022-08-05T01:50:15.376Z,4.95
2022-08-05T01:52:49.987Z,7.53
2022-08-05T01:55:21.859Z,5.10
2022-08-05T01:58:14.823Z,7.43
2022-08-05T02:00:45.387Z,6.57
2022-08-05T02:03:29.267Z,10.15
2022-08-05T02:06:03.706Z,7.40
2022-08-05T02:08:58.015Z,5.03
2022-08-05T02:11:33.951Z,4.80
2022-08-05T02:14:12.972Z,7.20
2022-08-05T02:16:47.229Z,8.00
2022-08-05T02:19:41.362Z,6.03
2022-08-05T02:22:27.369Z,6.03
2022-08-05T02:25:06.386Z,7.37
2022-08-05T02:27:57.918Z,5.30
2022-08-05T02:30:35.336Z,5.68
2022-08-05T02:33:06.624Z,6.87
2022-08-05T02:35:44.985Z,5.90
2022-08-05T02:38:35.060Z,6.82
2022-08-05T02:41:06.395Z,6.30
2022-08-05T02:44:02.533Z,5.95
2022-08-05T02:46:43.874Z,5.72
2022-08-05T02:49:22.964Z,5.83
2022-08-05T02:52:03.411Z,6.78
2022-08-05T02:54:37.016Z,6.35
2022-08-05T02:58:10.220Z,6.82
2022-08-05T03:00:00.485Z,8.45
2022-08-05T03:02:34.540Z,10.07
2022-08-05T03:05:03.052Z,9.00
2022-08-05T03:07:59.322Z,6.57
2022-08-05T03:10:21.778Z,5.60
2022-08-05T03:12:54.371Z,7.45
2022-08-05T03:15:24.167Z,9.77
2022-08-05T03:17:55.562Z,8.38
2022-08-05T03:20:24.683Z,7.10
2022-08-05T03:22:57.082Z,10.95
2022-08-05T03:25:33.476Z,6.12
2022-08-05T03:28:18.826Z,6.77
2022-08-05T03:30:50.892Z,9.57
2022-08-05T03:33:19.283Z,5.97
2022-08-05T03:35:48.668Z,6.43
2022-08-05T03:38:18.040Z,6.43
2022-08-05T03:41:03.974Z,7.17
2022-08-05T03:44:10.016Z,8.05
2022-08-05T03:46:29.526Z,10.00
2022-08-05T03:48:58.605Z,7.93
2022-08-05T03:52:49.072Z,11.82
2022-08-05T03:55:52.674Z,8.03
2022-08-05T03:57:42.017Z,9.63
2022-08-05T04:00:16.306Z,10.48
2022-08-05T04:02:58.056Z,8.45
2022-08-05T04:05:33.719Z,10.15
2022-08-05T04:08:05.646Z,11.90
2022-08-05T04:10:45.524Z,11.60
2022-08-05T04:13:13.897Z,23.92
2022-08-05T04:16:02.740Z,45.08
2022-08-05T04:18:30.301Z,33.72
2022-08-05T04:20:58.742Z,29.07
2022-08-05T04:24:05.147Z,52.00
2022-08-05T04:26:17.747Z,34.65
2022-08-05T04:28:51.316Z,46.17
2022-08-05T04:31:20.584Z,85.50
2022-08-05T04:34:18.609Z,57.87
2022-08-05T04:36:45.902Z,147.62
2022-08-05T04:39:19.489Z,47.22
2022-08-05T04:41:48.751Z,33.00
2022-08-05T04:44:21.468Z,42.75
2022-08-05T04:47:09.757Z,41.83
2022-08-05T04:50:02.701Z,43.47
2022-08-05T04:52:28.481Z,45.63
2022-08-05T04:54:57.239Z,19.60
2022-08-05T04:57:29.288Z,36.28
2022-08-05T04:59:58.941Z,74.43
2022-08-05T05:02:36.998Z,89.30
2022-08-05T05:05:26.333Z,91.15
2022-08-05T05:08:06.310Z,77.95
2022-08-05T05:10:47.340Z,48.47
2022-08-05T05:13:24.812Z,15.13
2022-08-05T05:15:57.894Z,18.92
2022-08-05T05:18:33.408Z,23.12
2022-08-05T05:21:03.880Z,26.10
2022-08-05T05:24:01.630Z,16.30
2022-08-05T05:26:28.532Z,29.37
2022-08-05T05:29:02.142Z,18.25
2022-08-05T05:34:01.983Z,27.20
2022-08-05T05:36:31.885Z,11.05
2022-08-05T05:39:00.214Z,15.57
2022-08-05T05:41:40.154Z,33.40
2022-08-05T05:44:35.505Z,20.92
2022-08-05T05:46:58.601Z,16.75
2022-08-05T05:49:33.353Z,14.70
2022-08-05T05:52:06.039Z,12.37
2022-08-05T05:54:50.537Z,9.02
2022-08-05T05:57:20.288Z,11.75
2022-08-05T05:59:48.943Z,5.05
2022-08-05T06:02:17.349Z,6.85
2022-08-05T06:05:01.400Z,6.27
2022-08-05T06:07:41.929Z,9.63
2022-08-05T06:10:11.510Z,12.00
2022-08-05T06:12:42.364Z,12.77
2022-08-05T06:15:16.537Z,10.10
2022-08-05T06:17:54.471Z,14.20
2022-08-05T06:20:23.242Z,10.30
2022-08-05T06:22:51.156Z,13.00
2022-08-05T06:25:25.237Z,6.70
2022-08-05T06:28:10.656Z,13.15
2022-08-05T06:30:41.432Z,11.30
2022-08-05T06:33:10.857Z,9.15
2022-08-05T06:36:07.318Z,14.63
2022-08-05T06:38:36.639Z,7.07
2022-08-05T06:41:07.886Z,6.47
2022-08-05T06:43:57.392Z,10.67
2022-08-05T06:46:29.654Z,12.02
2022-08-05T06:49:01.347Z,8.70
2022-08-05T06:51:31.104Z,10.38
2022-08-05T06:54:01.795Z,8.10
2022-08-05T06:56:34.601Z,8.67
2022-08-05T06:59:09.390Z,8.02
2022-08-05T07:01:41.525Z,10.80
2022-08-05T07:04:10.937Z,7.50
2022-08-05T07:06:42.187Z,7.47
2022-08-05T07:09:10.411Z,6.50
2022-08-05T07:11:39.724Z,7.68
2022-08-05T07:14:29.385Z,8.15
2022-08-05T07:17:59.398Z,9.45
2022-08-05T07:20:31.655Z,9.02
2022-08-05T07:22:39.546Z,7.70
2022-08-05T07:25:54.489Z,6.28
2022-08-05T07:28:05.773Z,7.90
2022-08-05T07:30:38.537Z,6.70
2022-08-05T07:33:15.577Z,6.22
2022-08-05T07:36:02.939Z,9.43
2022-08-05T07:38:43.259Z,7.37
2022-08-05T07:42:14.720Z,5.65
2022-08-05T07:44:14.402Z,9.35
2022-08-05T07:46:49.783Z,6.05
2022-08-05T07:49:19.686Z,6.00
2022-08-05T07:51:52.994Z,4.68
2022-08-05T07:54:31.556Z,15.75
2022-08-05T07:57:16.877Z,8.13
2022-08-05T07:59:52.129Z,6.35
2022-08-05T08:02:26.534Z,5.37
2022-08-05T08:04:56.432Z,4.65
2022-08-05T08:07:24.759Z,6.72
2022-08-05T08:09:57.106Z,7.43
2022-08-05T08:12:37.053Z,6.10
2022-08-05T08:15:15.291Z,14.70
2022-08-05T08:17:46.327Z,6.50
2022-08-05T08:20:43.820Z,6.03
2022-08-05T08:23:59.963Z,4.15
2022-08-05T08:26:04.495Z,5.53
2022-08-05T08:28:36.673Z,6.67
2022-08-05T08:31:09.212Z,7.05
2022-08-05T08:33:37.955Z,3.97
2022-08-05T08:38:57.044Z,7.22
2022-08-05T08:41:51.134Z,6.73
2022-08-05T08:45:19.347Z,11.07
2022-08-05T08:47:46.794Z,5.82
2022-08-05T08:50:22.509Z,6.62
2022-08-05T08:52:53.216Z,6.22
2022-08-05T08:56:03.040Z,5.90
2022-08-05T08:58:12.886Z,5.10
2022-08-05T09:00:42.914Z,6.90
2022-08-05T09:03:16.127Z,5.87
2022-08-05T09:06:08.881Z,8.75
2022-08-05T09:08:40.032Z,3.93
2022-08-05T09:11:13.633Z,6.57
2022-08-05T09:14:09.484Z,5.62
2022-08-05T09:16:31.323Z,5.85
2022-08-05T09:18:59.726Z,6.18
2022-08-05T09:22:28.708Z,4.57
2022-08-05T09:24:17.046Z,5.32
2022-08-05T09:26:51.750Z,2.78
2022-08-05T09:29:20.432Z,6.10
2022-08-05T09:32:41.484Z,4.40
2022-08-05T09:34:56.208Z,6.00
2022-08-05T09:38:16.802Z,4.93
2022-08-05T09:40:41.185Z,7.45
2022-08-05T09:43:40.174Z,5.28
2022-08-05T09:46:33.886Z,9.80
2022-08-05T09:49:19.065Z,5.80
2022-08-05T09:51:49.533Z,3.92
2022-08-05T09:54:31.501Z,6.53
2022-08-05T09:57:01.717Z,3.72
2022-08-05T09:59:35.226Z,4.87
2022-08-05T10:02:06.133Z,4.40
2022-08-05T10:04:38.598Z,3.90
2022-08-05T10:07:20.175Z,3.37
2022-08-05T10:10:13.881Z,5.18
2022-08-05T10:12:54.403Z,3.53
2022-08-05T10:15:49.973Z,4.17
2022-08-05T10:18:22.451Z,5.03
2022-08-05T10:21:06.390Z,6.40
2022-08-05T10:23:59.870Z,4.57
2022-08-05T10:26:32.583Z,2.80
2022-08-05T10:29:02.689Z,3.07
2022-08-05T10:32:51.905Z,2.87
2022-08-05T10:34:25.932Z,2.95
2022-08-05T10:36:59.884Z,4.43
2022-08-05T10:40:03.376Z,4.70
2022-08-05T10:42:33.789Z,9.57
2022-08-05T10:45:21.611Z,3.55
2022-08-05T10:48:31.838Z,9.27
2022-08-05T10:51:04.914Z,8.43
2022-08-05T10:53:50.644Z,3.83
2022-08-05T10:56:25.943Z,6.07
2022-08-05T10:58:57.289Z,6.32
2022-08-05T11:01:55.250Z,6.62
2022-08-05T11:04:42.591Z,7.30
2022-08-05T11:07:13.024Z,4.40
2022-08-05T11:09:47.766Z,5.87
2022-08-05T11:12:24.852Z,4.60
2022-08-05T11:15:19.760Z,2.60
2022-08-05T11:18:00.179Z,4.28
2022-08-05T11:20:41.575Z,4.97
2022-08-05T11:24:02.894Z,5.47
2022-08-05T11:26:28.584Z,4.70
2022-08-05T11:29:11.692Z,4.93
2022-08-05T11:31:56.609Z,4.60
2022-08-05T11:34:38.825Z,3.75
2022-08-05T11:38:28.837Z,3.20
2022-08-05T11:40:02.962Z,6.43
2022-08-05T11:42:40.220Z,3.75
2022-08-05T11:45:27.061Z,6.20
2022-08-05T11:47:57.981Z,5.05
2022-08-05T11:50:27.685Z,6.23
2022-08-05T11:52:57.916Z,5.80
2022-08-05T11:55:31.802Z,4.40
2022-08-05T11:58:09.711Z,3.03
2022-08-05T12:00:41.242Z,3.33
2022-08-05T12:03:28.675Z,11.87
2022-08-05T12:06:06.009Z,5.22
2022-08-05T12:08:56.063Z,6.20
2022-08-05T12:11:28.417Z,3.30
2022-08-05T12:14:08.664Z,6.03
2022-08-05T12:16:40.545Z,3.53
2022-08-05T12:20:25.995Z,7.85
2022-08-05T12:22:09.518Z,7.47
2022-08-05T12:24:56.154Z,3.37
2022-08-05T12:27:32.754Z,5.05
2022-08-05T12:30:04.954Z,4.37
2022-08-05T12:32:35.332Z,10.90
2022-08-05T12:35:07.844Z,3.78
2022-08-05T12:37:35.985Z,5.62
2022-08-05T12:40:10.797Z,6.05
2022-08-05T12:42:40.398Z,4.60
2022-08-05T12:45:10.443Z,5.60
2022-08-05T12:47:43.596Z,6.00
2022-08-05T12:50:27.519Z,8.23
2022-08-05T12:53:00.074Z,8.93
2022-08-05T12:55:32.843Z,5.13
2022-08-05T12:58:49.932Z,3.97
2022-08-05T13:02:01.734Z,5.40
2022-08-05T13:03:42.098Z,4.85
2022-08-05T13:06:17.181Z,4.22
2022-08-05T13:08:52.300Z,4.17
2022-08-05T13:12:01.732Z,5.43
2022-08-05T13:14:25.095Z,3.50
2022-08-05T13:17:31.572Z,4.62
2022-08-05T13:20:09.542Z,3.80
2022-08-05T13:22:43.481Z,3.20
2022-08-05T13:25:19.542Z,5.40
2022-08-05T13:27:53.636Z,3.35
2022-08-05T13:30:33.987Z,4.40
2022-08-05T13:33:04.813Z,2.62
2022-08-05T13:35:42.693Z,3.37
2022-08-05T13:38:20.395Z,3.25
2022-08-05T13:41:00.177Z,3.72
2022-08-05T13:43:45.890Z,5.12
2022-08-05T13:46:26.460Z,3.17
2022-08-05T13:49:10.413Z,2.67
2022-08-05T13:51:46.148Z,4.45
2022-08-05T13:54:21.211Z,5.10
2022-08-05T13:56:53.796Z,3.72
2022-08-05T13:59:27.509Z,3.40
2022-08-05T14:02:00.495Z,4.00
2022-08-05T14:04:51.484Z,8.07
2022-08-05T14:07:26.514Z,3.72
2022-08-05T14:10:28.168Z,3.22
2022-08-05T14:12:57.562Z,3.33
2022-08-05T14:16:04.903Z,4.17
2022-08-05T14:18:18.255Z,3.60
2022-08-05T14:20:48.470Z,5.82
2022-08-05T14:23:23.813Z,4.00
2022-08-05T14:25:57.913Z,3.97
2022-08-05T14:28:28.825Z,6.00
2022-08-05T14:31:01.397Z,5.10
2022-08-05T14:33:32.586Z,5.10
2022-08-05T14:36:21.517Z,4.03
2022-08-05T14:38:51.256Z,4.00
2022-08-05T14:41:19.486Z,5.87
2022-08-05T14:44:01.690Z,3.65
2022-08-05T14:46:36.546Z,4.30
2022-08-05T14:49:07.440Z,3.35
2022-08-05T14:51:42.911Z,5.50
2022-08-05T14:54:27.982Z,4.23
2022-08-05T14:56:59.185Z,3.12
2022-08-05T14:59:29.168Z,2.58
2022-08-05T15:01:58.263Z,4.10
2022-08-05T15:04:28.988Z,5.53
2022-08-05T15:06:57.448Z,5.03
2022-08-05T15:09:52.725Z,4.32
2022-08-05T15:12:16.875Z,3.65
2022-08-05T15:14:50.210Z,6.75
2022-08-05T15:17:46.022Z,5.50
2022-08-05T15:20:18.320Z,3.67
2022-08-05T15:22:54.185Z,4.68
2022-08-05T15:25:51.045Z,4.30
2022-08-05T15:28:15.903Z,4.75
2022-08-05T15:30:45.872Z,9.65
2022-08-05T15:34:04.400Z,23.13
2022-08-05T15:36:04.801Z,5.20
2022-08-05T15:38:47.943Z,4.75
2022-08-05T15:41:22.962Z,3.90
2022-08-05T15:43:55.012Z,2.70
2022-08-05T15:46:24.758Z,4.37
2022-08-05T15:49:00.627Z,7.30
2022-08-05T15:52:12.886Z,4.53
2022-08-05T15:54:35.118Z,5.15
2022-08-05T15:57:07.371Z,4.07
2022-08-05T15:59:38.102Z,3.57
2022-08-05T16:02:09.551Z,5.07
2022-08-05T16:04:44.009Z,5.80
2022-08-05T16:07:12.028Z,3.80
2022-08-05T16:09:43.615Z,6.82
2022-08-05T16:12:12.225Z,11.13
2022-08-05T16:14:40.696Z,3.35
2022-08-05T16:17:09.482Z,5.47
2022-08-05T16:20:04.337Z,3.33
2022-08-05T16:22:34.429Z,5.05
2022-08-05T16:25:09.550Z,4.93
2022-08-05T16:28:00.152Z,4.22
2022-08-05T16:30:28.864Z,6.85
2022-08-05T16:32:59.206Z,4.05
2022-08-05T16:35:33.758Z,9.00
2022-08-05T16:38:23.841Z,6.30
2022-08-05T16:40:59.548Z,2.70
2022-08-05T16:43:31.440Z,6.30
2022-08-05T16:46:04.311Z,7.18
2022-08-05T16:48:38.549Z,11.68
2022-08-05T16:51:10.115Z,5.03
2022-08-05T16:54:06.330Z,5.40
2022-08-05T16:56:31.021Z,4.70
2022-08-05T16:59:00.949Z,3.42
2022-08-05T17:01:53.909Z,4.00
2022-08-05T17:04:26.671Z,5.23
2022-08-05T17:07:03.640Z,5.53
2022-08-05T17:09:57.550Z,4.85
2022-08-05T17:12:51.803Z,5.10
2022-08-05T17:15:15.693Z,3.58
2022-08-05T17:17:55.257Z,6.07
2022-08-05T17:20:23.436Z,4.22
2022-08-05T17:22:55.355Z,7.75
2022-08-05T17:25:39.480Z,5.35
2022-08-05T17:28:09.835Z,6.43
2022-08-05T17:30:50.440Z,6.27
2022-08-05T17:33:20.927Z,3.45
2022-08-05T17:36:07.948Z,5.97
2022-08-05T17:38:37.304Z,7.62
2022-08-05T17:41:11.639Z,5.12
2022-08-05T17:43:57.051Z,6.40
2022-08-05T17:46:25.852Z,3.05
2022-08-05T17:48:55.376Z,3.65
2022-08-05T17:51:23.601Z,3.03
2022-08-05T17:53:54.949Z,5.12
2022-08-05T17:56:23.198Z,7.03
2022-08-05T17:58:56.416Z,5.30
2022-08-05T18:01:24.928Z,7.70
2022-08-05T18:04:05.753Z,11.25
2022-08-05T18:06:33.995Z,9.25
2022-08-05T18:09:03.552Z,9.20
2022-08-05T18:11:32.833Z,7.28
2022-08-05T18:14:03.728Z,6.12
2022-08-05T18:16:33.960Z,5.90
2022-08-05T18:19:02.607Z,6.75
2022-08-05T18:22:09.137Z,4.63
2022-08-05T18:24:18.891Z,7.65
2022-08-05T18:26:48.955Z,6.87
2022-08-05T18:29:17.092Z,7.82
2022-08-05T18:31:45.394Z,10.45
2022-08-05T18:34:13.586Z,4.47
2022-08-05T18:36:43.649Z,3.92
2022-08-05T18:39:42.293Z,5.28
2022-08-05T18:42:03.634Z,8.10
2022-08-05T18:44:49.310Z,6.50
2022-08-05T18:47:26.603Z,4.13
2022-08-05T18:50:15.521Z,6.95
2022-08-05T18:52:51.049Z,3.22
2022-08-05T18:55:22.266Z,4.85
2022-08-05T18:57:54.159Z,7.25
2022-08-05T19:00:31.735Z,11.17
2022-08-05T19:03:08.246Z,6.72
2022-08-05T19:06:11.285Z,6.57
2022-08-05T19:08:30.777Z,3.50
2022-08-05T19:11:04.742Z,3.80
2022-08-05T19:13:35.862Z,5.33
2022-08-05T19:16:24.334Z,4.07
2022-08-05T19:18:56.638Z,5.57
2022-08-05T19:21:27.520Z,6.47
2022-08-05T19:24:07.685Z,7.97
2022-08-05T19:26:43.857Z,3.60
2022-08-05T19:29:26.595Z,4.90
2022-08-05T19:32:11.477Z,4.97
2022-08-05T19:34:40.155Z,7.25
2022-08-05T19:37:10.185Z,5.72
2022-08-05T19:39:45.799Z,5.30
2022-08-05T19:42:35.028Z,7.07
2022-08-05T19:45:05.602Z,6.20
2022-08-05T19:47:38.056Z,3.25
2022-08-05T19:50:07.791Z,4.00
2022-08-05T19:52:39.880Z,5.17
2022-08-05T19:56:11.568Z,3.97
2022-08-05T19:58:19.669Z,5.20
2022-08-05T20:00:48.322Z,9.55
2022-08-05T20:03:16.761Z,5.80
2022-08-05T20:05:51.152Z,8.87
2022-08-05T20:08:20.496Z,5.25
2022-08-05T20:10:58.151Z,7.85
2022-08-05T20:13:54.517Z,6.80
2022-08-05T20:16:14.517Z,7.07
2022-08-05T20:18:48.503Z,5.67
2022-08-05T20:21:23.484Z,5.72
2022-08-05T20:23:53.366Z,9.90
2022-08-05T20:26:24.734Z,11.23
2022-08-05T20:28:56.207Z,8.90
2022-08-05T20:31:36.750Z,5.30
2022-08-05T20:34:05.998Z,4.53
2022-08-05T20:36:36.598Z,8.18
2022-08-05T20:39:07.455Z,3.92
2022-08-05T20:41:43.485Z,4.80
2022-08-05T20:44:29.817Z,7.17
2022-08-05T20:47:03.873Z,7.95
2022-08-05T20:49:37.971Z,7.25
2022-08-05T20:52:08.832Z,5.90
2022-08-05T20:54:59.000Z,6.22
2022-08-05T20:57:43.981Z,7.80
2022-08-05T21:00:34.968Z,8.02
2022-08-05T21:03:07.394Z,6.03
2022-08-05T21:05:54.762Z,4.72
2022-08-05T21:08:26.721Z,7.90
2022-08-05T21:11:01.512Z,6.47
2022-08-05T21:13:56.439Z,4.45
2022-08-05T21:16:30.063Z,6.35
2022-08-05T21:19:00.849Z,6.18
2022-08-05T21:21:39.339Z,5.78
2022-08-05T21:24:15.736Z,4.77
2022-08-05T21:26:53.426Z,5.57
2022-08-05T21:29:32.049Z,6.97
2022-08-05T21:32:02.677Z,6.50
2022-08-05T21:34:31.740Z,6.30
2022-08-05T21:37:01.675Z,4.40
2022-08-05T21:39:30.019Z,7.15
2022-08-05T21:42:01.310Z,6.65
2022-08-05T21:44:31.743Z,3.75
2022-08-05T21:47:00.430Z,13.75
2022-08-05T21:50:00.348Z,9.17
2022-08-05T21:52:27.916Z,7.07
2022-08-05T21:54:57.795Z,5.28
2022-08-05T21:57:36.064Z,5.07
2022-08-05T22:00:10.882Z,8.23
2022-08-05T22:02:41.817Z,5.97
2022-08-05T22:05:12.682Z,9.77
2022-08-05T22:07:58.990Z,10.45
2022-08-05T22:10:31.048Z,5.12
2022-08-05T22:13:08.750Z,7.68
2022-08-05T22:16:04.679Z,4.87
2022-08-05T22:18:39.615Z,4.75
2022-08-05T22:21:19.431Z,4.95
2022-08-05T22:24:09.031Z,4.93
2022-08-05T22:27:00.340Z,5.25
2022-08-05T22:29:34.706Z,4.40
2022-08-05T22:32:03.589Z,5.12
2022-08-05T22:34:33.331Z,4.72
2022-08-05T22:37:04.036Z,7.55
2022-08-05T22:39:34.778Z,5.65
2022-08-05T22:42:10.932Z,7.70
2022-08-05T22:44:48.594Z,5.00
2022-08-05T22:47:29.898Z,4.53
2022-08-05T22:50:20.329Z,7.25
2022-08-05T22:52:52.593Z,4.30
2022-08-05T22:55:22.369Z,9.33
2022-08-05T22:57:51.883Z,5.20
2022-08-05T23:00:22.936Z,8.68
2022-08-05T23:02:53.521Z,3.50
2022-08-05T23:05:22.832Z,5.47
2022-08-05T23:07:51.928Z,6.70
2022-08-05T23:10:24.077Z,4.82
2022-08-05T23:12:54.385Z,5.68
2022-08-05T23:15:29.937Z,7.43
2022-08-05T23:18:06.059Z,4.68
2022-08-05T23:20:39.975Z,5.50
2022-08-05T23:23:11.300Z,4.55
2022-08-05T23:25:54.874Z,4.32
2022-08-05T23:28:28.626Z,5.37
2022-08-05T23:31:16.267Z,6.68
2022-08-05T23:34:04.282Z,5.33
2022-08-05T23:36:39.530Z,4.78
2022-08-05T23:39:23.717Z,5.37
2022-08-05T23:42:00.502Z,5.22
2022-08-05T23:44:31.419Z,6.57
2022-08-05T23:47:02.496Z,6.23
2022-08-05T23:49:45.732Z,5.20
2022-08-05T23:52:32.473Z,4.82
2022-08-05T23:55:09.564Z,6.45
2022-08-05T23:57:38.852Z,5.22
